Time;durP1;ratioP1;P1;durP2;ratioP2;P2;SDS_P1;SDS_P2;PMS_P1;PMS_P2;Temp;Humidity;BMP_temperature;BMP_pressure;BME280_temperature;BME280_humidity;BME280_pressure;Samples;Min_cycle;Max_cycle;Signal;HPM_P1;HPM_P2
2022/07/07 00:01:26;;;;;;;4.00;1.53;;;;;;;;;;4932922;29;20249;-79
2022/07/07 00:03:53;;;;;;;6.47;1.53;;;;;;;;;;4930793;29;21231;-79
2022/07/07 00:06:20;;;;;;;2.73;1.40;;;;;;;;;;4930918;29;20229;-79
2022/07/07 00:08:47;;;;;;;2.80;2.00;;;;;;;;;;4933061;29;20241;-79
2022/07/07 00:11:15;;;;;;;3.00;1.63;;;;;;;;;;4932192;29;20217;-78
2022/07/07 00:13:44;;;;;;;3.93;1.80;;;;;;;;;;4932259;29;20207;-78
2022/07/07 00:16:11;;;;;;;7.33;2.07;;;;;;;;;;4933738;29;20608;-79
2022/07/07 00:18:38;;;;;;;4.07;1.87;;;;;;;;;;4931461;29;20226;-79
2022/07/07 00:21:06;;;;;;;5.03;1.73;;;;;;;;;;4930381;29;20214;-79
2022/07/07 00:23:33;;;;;;;2.93;1.63;;;;;;;;;;4932289;29;20203;-79
2022/07/07 00:26:01;;;;;;;2.63;1.50;;;;;;;;;;4929506;29;20919;-79
2022/07/07 00:28:28;;;;;;;6.13;1.50;;;;;;;;;;4930450;29;20237;-79
2022/07/07 00:30:56;;;;;;;4.60;1.60;;;;;;;;;;4930706;29;20318;-79
2022/07/07 00:33:24;;;;;;;3.87;2.13;;;;;;;;;;4932964;29;20487;-79
2022/07/07 00:35:51;;;;;;;3.50;1.70;;;;;;;;;;4929945;29;20211;-79
2022/07/07 00:38:19;;;;;;;4.00;1.93;;;;;;;;;;4930259;29;20238;-79
2022/07/07 00:40:50;;;;;;;3.77;1.70;;;;;;;;;;4929268;29;20210;-80
2022/07/07 00:43:17;;;;;;;3.30;1.80;;;;;;;;;;4931568;29;20694;-79
2022/07/07 00:45:46;;;;;;;3.87;1.90;;;;;;;;;;4931084;29;20341;-79
2022/07/07 00:48:15;;;;;;;2.80;1.73;;;;;;;;;;4932888;28;20227;-79
2022/07/07 00:50:44;;;;;;;2.73;1.80;;;;;;;;;;4929962;29;20203;-80
2022/07/07 00:53:11;;;;;;;4.10;1.70;;;;;;;;;;4927772;29;20215;-79
2022/07/07 00:55:39;;;;;;;4.33;1.90;;;;;;;;;;4931106;29;20203;-79
2022/07/07 00:58:06;;;;;;;2.43;1.70;;;;;;;;;;4928036;29;20228;-79
2022/07/07 01:00:34;;;;;;;2.10;1.70;;;;;;;;;;4932027;29;20213;-79
2022/07/07 01:03:01;;;;;;;5.13;2.00;;;;;;;;;;4929112;29;20211;-79
2022/07/07 01:05:30;;;;;;;3.50;1.97;;;;;;;;;;4928956;29;20519;-80
2022/07/07 01:07:58;;;;;;;3.37;1.70;;;;;;;;;;4929746;29;20231;-79
2022/07/07 01:10:25;;;;;;;3.37;2.00;;;;;;;;;;4930523;29;20737;-78
2022/07/07 01:12:52;;;;;;;4.07;1.70;;;;;;;;;;4929892;29;20699;-79
2022/07/07 01:15:19;;;;;;;4.30;1.70;;;;;;;;;;4928518;29;20211;-79
2022/07/07 01:17:46;;;;;;;4.00;1.70;;;;;;;;;;4929429;29;20583;-79
2022/07/07 01:20:14;;;;;;;3.00;1.80;;;;;;;;;;4932900;29;20209;-79
2022/07/07 01:22:47;;;;;;;2.73;1.63;;;;;;;;;;4931617;29;20203;-79
2022/07/07 01:25:14;;;;;;;2.43;1.70;;;;;;;;;;4930524;29;20221;-79
2022/07/07 01:27:42;;;;;;;4.60;2.43;;;;;;;;;;4930753;29;20239;-79
2022/07/07 01:30:09;;;;;;;5.30;2.00;;;;;;;;;;4930147;29;20233;-80
2022/07/07 01:32:36;;;;;;;2.97;1.67;;;;;;;;;;4930582;29;20215;-79
2022/07/07 01:35:04;;;;;;;3.57;1.90;;;;;;;;;;4929255;29;20211;-79
2022/07/07 01:37:31;;;;;;;9.53;1.57;;;;;;;;;;4930943;29;20238;-79
2022/07/07 01:40:00;;;;;;;4.07;1.93;;;;;;;;;;4930421;29;20218;-80
2022/07/07 01:42:27;;;;;;;3.53;2.00;;;;;;;;;;4927691;29;20204;-79
2022/07/07 01:44:54;;;;;;;6.30;1.90;;;;;;;;;;4927246;29;20217;-79
2022/07/07 01:47:22;;;;;;;4.47;1.70;;;;;;;;;;4933556;29;20234;-78
2022/07/07 01:49:50;;;;;;;4.47;2.40;;;;;;;;;;4931199;29;20223;-79
2022/07/07 01:52:17;;;;;;;4.60;1.93;;;;;;;;;;4929396;29;20226;-79
2022/07/07 01:54:44;;;;;;;1.70;1.60;;;;;;;;;;4928200;29;20203;-79
2022/07/07 01:57:13;;;;;;;8.30;1.80;;;;;;;;;;4929549;29;20230;-79
2022/07/07 01:59:40;;;;;;;4.37;1.77;;;;;;;;;;4928500;28;20214;-78
2022/07/07 02:02:07;;;;;;;7.33;1.90;;;;;;;;;;4928246;29;20214;-79
2022/07/07 02:04:34;;;;;;;3.50;1.70;;;;;;;;;;4928317;29;20265;-80
2022/07/07 02:07:02;;;;;;;7.67;1.93;;;;;;;;;;4928564;29;20645;-79
2022/07/07 02:09:29;;;;;;;1.90;1.57;;;;;;;;;;4926115;29;20718;-79
2022/07/07 02:11:56;;;;;;;3.87;1.87;;;;;;;;;;4928006;29;20207;-79
2022/07/07 02:14:25;;;;;;;3.40;1.60;;;;;;;;;;4933681;29;20211;-79
2022/07/07 02:16:52;;;;;;;3.63;2.00;;;;;;;;;;4935056;29;20213;-79
2022/07/07 02:19:19;;;;;;;2.90;1.50;;;;;;;;;;4933269;28;20204;-79
2022/07/07 02:21:46;;;;;;;3.67;1.60;;;;;;;;;;4933624;29;20685;-79
2022/07/07 02:24:13;;;;;;;3.67;2.03;;;;;;;;;;4931351;29;20207;-78
2022/07/07 02:26:41;;;;;;;2.97;1.60;;;;;;;;;;4932927;29;20602;-79
2022/07/07 02:29:09;;;;;;;4.47;1.97;;;;;;;;;;4952854;23;20233;-75
2022/07/07 02:31:38;;;;;;;2.70;1.80;;;;;;;;;;4941385;28;20208;-74
2022/07/07 02:34:05;;;;;;;3.17;1.70;;;;;;;;;;4944847;28;20214;-74
2022/07/07 02:36:33;;;;;;;2.87;1.97;;;;;;;;;;4941114;28;20210;-74
2022/07/07 02:39:00;;;;;;;3.63;1.90;;;;;;;;;;4940971;28;20578;-74
2022/07/07 02:41:27;;;;;;;3.97;2.20;;;;;;;;;;4943187;28;20214;-74
2022/07/07 02:43:54;;;;;;;6.07;2.17;;;;;;;;;;4941770;28;20217;-74
2022/07/07 02:46:21;;;;;;;2.27;1.67;;;;;;;;;;4940007;28;20230;-74
2022/07/07 02:48:50;;;;;;;4.57;1.80;;;;;;;;;;4941728;28;20199;-74
2022/07/07 02:51:17;;;;;;;3.73;2.20;;;;;;;;;;4939524;28;20259;-74
2022/07/07 02:53:44;;;;;;;4.33;1.90;;;;;;;;;;4942096;28;20297;-74
2022/07/07 02:56:11;;;;;;;3.77;1.90;;;;;;;;;;4938586;28;20233;-74
2022/07/07 02:58:39;;;;;;;3.63;2.10;;;;;;;;;;4945634;28;20202;-74
2022/07/07 03:01:06;;;;;;;4.33;2.43;;;;;;;;;;4940527;28;20206;-74
2022/07/07 03:03:33;;;;;;;5.30;2.10;;;;;;;;;;4937490;28;20321;-74
2022/07/07 03:06:02;;;;;;;3.10;1.70;;;;;;;;;;4944606;28;20235;-74
2022/07/07 03:08:29;;;;;;;10.37;2.57;;;;;;;;;;4941635;28;20829;-73
2022/07/07 03:10:56;;;;;;;2.87;1.97;;;;;;;;;;4942317;28;20234;-74
2022/07/07 03:13:23;;;;;;;6.80;2.17;;;;;;;;;;4943730;28;20217;-74
2022/07/07 03:15:50;;;;;;;3.13;1.80;;;;;;;;;;4944920;28;20232;-74
2022/07/07 03:18:18;;;;;;;5.40;2.00;;;;;;;;;;4947005;28;20212;-74
2022/07/07 03:20:46;;;;;;;6.47;1.90;;;;;;;;;;4941742;28;20293;-74
2022/07/07 03:23:14;;;;;;;3.97;2.37;;;;;;;;;;4944388;28;20207;-74
2022/07/07 03:25:41;;;;;;;3.57;1.90;;;;;;;;;;4945305;28;20219;-74
2022/07/07 03:28:08;;;;;;;4.13;2.20;;;;;;;;;;4943202;28;20236;-74
2022/07/07 03:30:36;;;;;;;2.17;1.73;;;;;;;;;;4942752;28;20807;-74
2022/07/07 03:33:04;;;;;;;2.60;2.20;;;;;;;;;;4942633;28;20594;-74
2022/07/07 03:35:31;;;;;;;4.70;1.93;;;;;;;;;;4943072;28;20234;-75
2022/07/07 03:37:58;;;;;;;3.53;2.07;;;;;;;;;;4948767;28;20210;-74
2022/07/07 03:40:27;;;;;;;6.30;2.17;;;;;;;;;;4943677;28;20203;-75
2022/07/07 03:42:54;;;;;;;6.60;2.23;;;;;;;;;;4941229;28;20211;-74
2022/07/07 03:45:21;;;;;;;5.13;2.13;;;;;;;;;;4940503;28;20233;-75
2022/07/07 03:47:50;;;;;;;5.40;2.30;;;;;;;;;;4941343;28;21173;-75
2022/07/07 03:50:17;;;;;;;5.13;2.00;;;;;;;;;;4942904;28;20236;-75
2022/07/07 03:52:44;;;;;;;6.00;2.20;;;;;;;;;;4944629;28;20289;-72
2022/07/07 03:55:11;;;;;;;3.17;2.20;;;;;;;;;;4943573;28;20734;-75
2022/07/07 03:57:41;;;;;;;2.80;2.13;;;;;;;;;;4940728;28;20293;-74
2022/07/07 04:00:09;;;;;;;6.20;2.53;;;;;;;;;;4941065;28;20213;-74
2022/07/07 04:02:36;;;;;;;6.57;2.30;;;;;;;;;;4940244;28;20246;-74
2022/07/07 04:05:03;;;;;;;9.37;2.60;;;;;;;;;;4939838;28;20246;-75
2022/07/07 04:07:33;;;;;;;7.30;3.53;;;;;;;;;;4942404;28;20233;-74
2022/07/07 04:10:01;;;;;;;6.57;2.57;;;;;;;;;;4944254;28;20226;-74
2022/07/07 04:12:28;;;;;;;4.93;2.40;;;;;;;;;;4943168;28;20214;-74
2022/07/07 04:14:56;;;;;;;5.80;2.60;;;;;;;;;;4942331;28;20234;-74
2022/07/07 04:17:24;;;;;;;4.77;2.70;;;;;;;;;;4940248;28;20203;-74
2022/07/07 04:19:51;;;;;;;12.10;2.57;;;;;;;;;;4946144;28;20226;-74
2022/07/07 04:22:18;;;;;;;4.00;2.67;;;;;;;;;;4937102;28;20198;-74
2022/07/07 04:24:45;;;;;;;8.63;3.13;;;;;;;;;;4939776;28;20226;-75
2022/07/07 04:27:12;;;;;;;9.23;3.17;;;;;;;;;;4944012;28;20655;-73
2022/07/07 04:29:39;;;;;;;5.93;3.60;;;;;;;;;;4943511;28;20206;-74
2022/07/07 04:32:10;;;;;;;7.73;3.47;;;;;;;;;;4943043;28;20217;-74
2022/07/07 04:34:38;;;;;;;5.40;3.83;;;;;;;;;;4941792;28;20226;-74
2022/07/07 04:37:05;;;;;;;9.60;4.40;;;;;;;;;;4942235;28;20213;-74
2022/07/07 04:39:32;;;;;;;6.37;3.53;;;;;;;;;;4943389;28;20227;-74
2022/07/07 04:41:59;;;;;;;8.60;4.10;;;;;;;;;;4943298;28;20205;-74
2022/07/07 04:44:27;;;;;;;7.60;3.90;;;;;;;;;;4943101;28;20708;-74
2022/07/07 04:46:54;;;;;;;12.47;4.30;;;;;;;;;;4944394;28;20682;-74
2022/07/07 04:49:22;;;;;;;9.80;4.13;;;;;;;;;;4940699;28;20293;-75
2022/07/07 04:51:50;;;;;;;8.77;4.33;;;;;;;;;;4940233;28;20732;-74
2022/07/07 04:54:17;;;;;;;7.43;4.03;;;;;;;;;;4943433;28;20297;-72
2022/07/07 04:56:44;;;;;;;7.07;4.30;;;;;;;;;;4947453;28;20201;-72
2022/07/07 04:59:11;;;;;;;7.17;3.80;;;;;;;;;;4943780;28;20212;-74
2022/07/07 05:01:38;;;;;;;7.97;4.13;;;;;;;;;;4940695;28;20216;-74
2022/07/07 05:04:06;;;;;;;11.93;4.60;;;;;;;;;;4942264;28;20203;-75
2022/07/07 05:06:34;;;;;;;11.30;4.10;;;;;;;;;;4940874;28;20213;-73
2022/07/07 05:09:02;;;;;;;8.50;4.40;;;;;;;;;;4942191;28;20215;-75
2022/07/07 05:11:29;;;;;;;6.97;4.60;;;;;;;;;;4941057;28;20255;-76
2022/07/07 05:13:56;;;;;;;13.20;4.20;;;;;;;;;;4942131;28;20498;-77
2022/07/07 05:16:23;;;;;;;10.77;4.70;;;;;;;;;;4941441;28;20347;-74
2022/07/07 05:18:50;;;;;;;9.37;4.10;;;;;;;;;;4941420;28;20207;-75
2022/07/07 05:21:18;;;;;;;6.77;4.37;;;;;;;;;;4941627;28;20207;-74
2022/07/07 05:23:46;;;;;;;10.57;4.67;;;;;;;;;;4940924;28;20199;-75
2022/07/07 05:26:13;;;;;;;7.03;4.27;;;;;;;;;;4942110;28;20230;-75
2022/07/07 05:28:42;;;;;;;7.40;3.90;;;;;;;;;;4940882;28;20803;-74
2022/07/07 05:31:10;;;;;;;9.27;3.90;;;;;;;;;;4941935;28;20237;-75
2022/07/07 05:33:37;;;;;;;7.30;4.37;;;;;;;;;;4938158;28;20207;-74
2022/07/07 05:36:04;;;;;;;7.77;4.13;;;;;;;;;;4941288;28;20245;-74
2022/07/07 05:38:31;;;;;;;11.17;5.03;;;;;;;;;;4938066;28;20305;-74
2022/07/07 05:41:00;;;;;;;9.63;4.07;;;;;;;;;;4939776;28;20226;-74
2022/07/07 05:43:27;;;;;;;9.67;4.40;;;;;;;;;;4938982;28;20294;-76
2022/07/07 05:45:55;;;;;;;7.30;3.90;;;;;;;;;;4945309;28;20690;-75
2022/07/07 05:48:22;;;;;;;11.10;4.67;;;;;;;;;;4946741;28;20209;-75
2022/07/07 05:50:49;;;;;;;9.00;3.87;;;;;;;;;;4946613;28;20227;-75
2022/07/07 05:53:16;;;;;;;8.17;4.00;;;;;;;;;;4943659;28;20208;-74
2022/07/07 05:55:43;;;;;;;7.00;3.70;;;;;;;;;;4933843;28;20230;-77
2022/07/07 05:58:12;;;;;;;10.17;4.57;;;;;;;;;;4938175;28;20305;-74
2022/07/07 06:00:40;;;;;;;7.73;4.43;;;;;;;;;;4937813;28;20199;-76
2022/07/07 06:03:07;;;;;;;8.07;4.77;;;;;;;;;;4939461;28;20206;-76
2022/07/07 06:05:34;;;;;;;10.10;4.97;;;;;;;;;;4938906;28;20232;-72
2022/07/07 06:08:01;;;;;;;11.53;4.53;;;;;;;;;;4939619;28;20301;-75
2022/07/07 06:10:29;;;;;;;9.03;4.50;;;;;;;;;;4936558;28;20232;-74
2022/07/07 06:12:56;;;;;;;6.57;4.43;;;;;;;;;;4934545;28;20567;-75
2022/07/07 06:15:25;;;;;;;13.20;5.13;;;;;;;;;;4944625;28;20340;-75
2022/07/07 06:17:52;;;;;;;9.37;4.50;;;;;;;;;;4943008;28;20198;-76
2022/07/07 06:20:19;;;;;;;13.20;5.17;;;;;;;;;;4946212;28;20321;-75
2022/07/07 06:22:46;;;;;;;9.40;5.13;;;;;;;;;;4944519;28;20210;-75
2022/07/07 06:25:14;;;;;;;8.90;5.10;;;;;;;;;;4941703;28;20230;-73
2022/07/07 06:27:41;;;;;;;11.63;5.67;;;;;;;;;;4943449;28;20298;-72
2022/07/07 06:30:08;;;;;;;8.83;4.63;;;;;;;;;;4943254;28;20677;-75
2022/07/07 06:32:37;;;;;;;7.30;4.50;;;;;;;;;;4940362;28;20302;-74
2022/07/07 06:35:04;;;;;;;7.97;4.63;;;;;;;;;;4940859;28;20320;-75
2022/07/07 06:37:32;;;;;;;11.13;4.87;;;;;;;;;;4941844;28;20673;-75
2022/07/07 06:39:59;;;;;;;12.20;4.67;;;;;;;;;;4941425;28;20302;-75
2022/07/07 06:42:26;;;;;;;9.30;5.00;;;;;;;;;;4934919;28;20194;-75
2022/07/07 06:44:53;;;;;;;7.67;4.60;;;;;;;;;;4939006;28;20804;-75
2022/07/07 06:47:21;;;;;;;11.37;4.60;;;;;;;;;;4938904;28;20210;-76
2022/07/07 06:49:49;;;;;;;10.97;4.63;;;;;;;;;;4939497;28;20693;-76
2022/07/07 06:52:17;;;;;;;10.37;4.80;;;;;;;;;;4940141;28;20230;-73
2022/07/07 06:54:44;;;;;;;7.40;4.60;;;;;;;;;;4943077;28;20756;-74
2022/07/07 06:57:11;;;;;;;11.43;4.53;;;;;;;;;;4939361;28;20216;-75
2022/07/07 06:59:38;;;;;;;7.23;4.27;;;;;;;;;;4947934;28;20217;-75
2022/07/07 07:02:06;;;;;;;8.63;4.50;;;;;;;;;;4946274;28;20293;-76
2022/07/07 07:04:33;;;;;;;7.70;4.07;;;;;;;;;;4941735;28;20310;-75
2022/07/07 07:07:01;;;;;;;13.83;4.97;;;;;;;;;;4942292;28;20306;-73
2022/07/07 07:09:28;;;;;;;6.83;4.60;;;;;;;;;;4942094;28;20665;-76
2022/07/07 07:11:56;;;;;;;10.40;5.03;;;;;;;;;;4941841;28;20222;-75
2022/07/07 07:14:23;;;;;;;11.63;5.30;;;;;;;;;;4943134;28;20227;-76
2022/07/07 07:16:50;;;;;;;11.17;5.47;;;;;;;;;;4941513;28;20689;-76
2022/07/07 07:19:17;;;;;;;10.27;5.23;;;;;;;;;;4940865;28;20295;-76
2022/07/07 07:21:44;;;;;;;9.83;4.93;;;;;;;;;;4943675;28;20233;-73
2022/07/07 07:24:13;;;;;;;7.23;4.13;;;;;;;;;;4943035;28;20297;-75
2022/07/07 07:26:40;;;;;;;9.97;4.50;;;;;;;;;;4943023;28;20215;-76
2022/07/07 07:29:07;;;;;;;6.53;4.53;;;;;;;;;;4942850;28;20218;-76
2022/07/07 07:31:35;;;;;;;8.37;4.73;;;;;;;;;;4945860;28;20324;-75
2022/07/07 07:34:02;;;;;;;10.23;4.87;;;;;;;;;;4943026;28;20289;-76
2022/07/07 07:36:29;;;;;;;10.00;4.73;;;;;;;;;;4945265;28;20575;-74
2022/07/07 07:38:58;;;;;;;6.07;4.07;;;;;;;;;;4943607;28;20748;-76
2022/07/07 07:41:26;;;;;;;7.37;4.13;;;;;;;;;;4942980;28;20195;-76
2022/07/07 07:43:53;;;;;;;5.93;3.90;;;;;;;;;;4942760;28;20753;-76
2022/07/07 07:46:21;;;;;;;10.10;3.97;;;;;;;;;;4947429;28;20586;-76
2022/07/07 07:48:48;;;;;;;6.70;3.87;;;;;;;;;;4939482;28;20207;-75
2022/07/07 07:51:15;;;;;;;4.77;3.13;;;;;;;;;;4946411;28;20320;-77
2022/07/07 07:53:42;;;;;;;8.60;3.17;;;;;;;;;;4943876;28;20665;-75
2022/07/07 07:56:09;;;;;;;7.13;2.47;;;;;;;;;;4944294;28;20230;-76
2022/07/07 07:58:38;;;;;;;3.37;1.90;;;;;;;;;;4940989;28;20213;-76
2022/07/07 08:01:05;;;;;;;1.60;1.33;;;;;;;;;;4940572;28;20645;-75
2022/07/07 08:03:32;;;;;;;2.93;1.43;;;;;;;;;;4939449;28;20576;-75
2022/07/07 08:05:59;;;;;;;1.73;1.40;;;;;;;;;;4945804;28;20682;-75
2022/07/07 08:08:26;;;;;;;2.50;1.43;;;;;;;;;;4943279;28;20300;-75
2022/07/07 08:10:54;;;;;;;2.20;1.33;;;;;;;;;;4940533;28;20217;-77
2022/07/07 08:13:21;;;;;;;3.47;1.40;;;;;;;;;;4936929;28;20289;-76
2022/07/07 08:15:49;;;;;;;4.07;1.37;;;;;;;;;;4943439;28;20582;-77
2022/07/07 08:18:16;;;;;;;2.57;1.40;;;;;;;;;;4941178;28;20209;-74
2022/07/07 08:20:44;;;;;;;3.67;1.50;;;;;;;;;;4941970;28;20661;-75
2022/07/07 08:23:11;;;;;;;2.40;1.33;;;;;;;;;;4943351;28;20202;-76
2022/07/07 08:25:38;;;;;;;2.33;1.30;;;;;;;;;;4941530;28;20239;-76
2022/07/07 08:28:05;;;;;;;3.13;1.40;;;;;;;;;;4963673;23;20231;-83
2022/07/07 08:30:32;;;;;;;3.87;1.60;;;;;;;;;;4949640;28;20235;-82
2022/07/07 08:33:01;;;;;;;3.53;1.57;;;;;;;;;;4948994;28;20309;-82
2022/07/07 08:35:32;;;;;;;2.57;1.33;;;;;;;;;;4948322;28;20205;-82
2022/07/07 08:37:59;;;;;;;3.30;1.40;;;;;;;;;;4943465;28;20274;-82
2022/07/07 08:40:27;;;;;;;2.20;1.13;;;;;;;;;;4934424;29;20297;-82
2022/07/07 08:42:57;;;;;;;4.77;1.60;;;;;;;;;;4933813;29;20241;-82
2022/07/07 08:45:25;;;;;;;4.00;1.23;;;;;;;;;;4939317;29;20209;-82
2022/07/07 08:47:53;;;;;;;2.70;1.30;;;;;;;;;;4935535;29;20808;-82
2022/07/07 08:50:21;;;;;;;1.37;1.17;;;;;;;;;;4933536;29;20282;-83
2022/07/07 08:52:52;;;;;;;1.40;1.10;;;;;;;;;;4934677;29;20746;-82
2022/07/07 08:55:23;;;;;;;1.90;1.40;;;;;;;;;;4929365;29;20214;-83
2022/07/07 08:57:51;;;;;;;4.00;1.70;;;;;;;;;;4938146;28;20229;-82
2022/07/07 09:00:18;;;;;;;4.23;1.50;;;;;;;;;;4935744;29;20218;-83
2022/07/07 09:02:49;;;;;;;3.80;1.97;;;;;;;;;;4935958;29;20227;-83
2022/07/07 09:05:17;;;;;;;4.10;1.83;;;;;;;;;;4935172;29;20214;-83
2022/07/07 09:07:47;;;;;;;4.00;1.70;;;;;;;;;;4937199;28;20588;-82
2022/07/07 09:10:28;;;;;;;3.37;1.70;;;;;;;;;;4938488;29;20266;-83
2022/07/07 09:12:55;;;;;;;2.17;1.90;;;;;;;;;;4938628;29;20230;-82
2022/07/07 09:15:30;;;;;;;2.77;1.87;;;;;;;;;;4937071;29;20294;-83
2022/07/07 09:17:57;;;;;;;7.97;2.30;;;;;;;;;;4932954;29;20226;-82
2022/07/07 09:20:24;;;;;;;3.90;2.60;;;;;;;;;;4932639;29;20291;-82
2022/07/07 09:22:55;;;;;;;5.23;2.97;;;;;;;;;;4937921;29;20278;-81
2022/07/07 09:25:24;;;;;;;2.87;2.57;;;;;;;;;;4936401;29;20221;-81
2022/07/07 09:27:52;;;;;;;4.83;2.83;;;;;;;;;;4934648;29;20699;-81
2022/07/07 09:30:31;;;;;;;4.83;2.97;;;;;;;;;;4938142;29;20301;-81
2022/07/07 09:32:58;;;;;;;3.73;3.33;;;;;;;;;;4952344;28;20226;-81
2022/07/07 09:38:17;;;;;;;4.53;3.87;;;;;;;;;;4944088;28;20745;-80
2022/07/07 09:40:52;;;;;;;4.00;2.87;;;;;;;;;;4933484;29;20213;-80
2022/07/07 09:43:20;;;;;;;2.27;1.57;;;;;;;;;;4938924;29;20233;-80
2022/07/07 09:45:48;;;;;;;1.73;1.30;;;;;;;;;;4936662;29;20265;-81
2022/07/07 09:48:21;;;;;;;4.17;1.43;;;;;;;;;;4935167;28;20235;-80
2022/07/07 09:50:49;;;;;;;1.40;1.30;;;;;;;;;;4932094;29;20206;-80
2022/07/07 09:53:17;;;;;;;5.00;1.20;;;;;;;;;;4927531;29;20706;-80
2022/07/07 09:56:01;;;;;;;3.60;1.27;;;;;;;;;;4927353;29;20214;-80
2022/07/07 09:58:29;;;;;;;7.13;1.10;;;;;;;;;;4928575;28;20782;-81
2022/07/07 10:00:57;;;;;;;1.63;0.87;;;;;;;;;;4932075;29;20217;-80
2022/07/07 10:03:24;;;;;;;4.10;1.20;;;;;;;;;;4933654;29;20207;-82
2022/07/07 10:05:54;;;;;;;5.43;1.20;;;;;;;;;;4932674;29;20754;-80
2022/07/07 10:08:23;;;;;;;5.80;1.40;;;;;;;;;;4934255;28;20227;-80
2022/07/07 10:10:50;;;;;;;3.83;1.20;;;;;;;;;;4932967;29;20211;-81
2022/07/07 10:16:02;;;;;;;3.17;1.43;;;;;;;;;;4877617;29;20226;-81
2022/07/07 10:18:30;;;;;;;4.80;1.30;;;;;;;;;;4931351;28;20613;-81
2022/07/07 10:20:58;;;;;;;4.97;1.30;;;;;;;;;;4934838;29;20214;-81
2022/07/07 10:23:27;;;;;;;4.87;1.47;;;;;;;;;;4929506;29;20608;-80
2022/07/07 10:26:10;;;;;;;1.63;1.17;;;;;;;;;;4930356;29;20298;-81
2022/07/07 10:28:56;;;;;;;2.60;1.50;;;;;;;;;;4931660;28;20234;-81
2022/07/07 10:31:24;;;;;;;4.70;1.40;;;;;;;;;;4927542;29;20218;-82
2022/07/07 10:36:54;;;;;;;2.83;1.63;;;;;;;;;;4938528;29;20226;-81
2022/07/07 10:39:25;;;;;;;2.87;1.40;;;;;;;;;;4935026;28;20646;-81
2022/07/07 10:41:56;;;;;;;1.77;1.23;;;;;;;;;;4930818;29;20209;-81
2022/07/07 10:44:26;;;;;;;3.40;1.53;;;;;;;;;;4934455;29;20199;-81
2022/07/07 10:47:00;;;;;;;4.37;1.60;;;;;;;;;;4932326;29;20663;-80
2022/07/07 10:49:38;;;;;;;1.73;1.10;;;;;;;;;;4938173;29;20319;-80
2022/07/07 10:52:10;;;;;;;4.90;0.77;;;;;;;;;;4961840;28;20234;-80
2022/07/07 10:54:40;;;;;;;2.80;0.80;;;;;;;;;;4944923;28;20202;-80
2022/07/07 10:57:11;;;;;;;3.50;0.70;;;;;;;;;;4940216;29;20714;-80
2022/07/07 11:02:44;;;;;;;3.03;0.73;;;;;;;;;;4935941;29;20233;-80
2022/07/07 11:05:32;;;;;;;3.03;0.80;;;;;;;;;;4935727;29;20213;-81
2022/07/07 11:08:12;;;;;;;3.30;0.70;;;;;;;;;;4918997;28;20227;-81
2022/07/07 11:10:47;;;;;;;1.73;0.80;;;;;;;;;;4934491;29;20293;-82
2022/07/07 11:13:33;;;;;;;1.17;0.60;;;;;;;;;;4944150;29;20222;-81
2022/07/07 11:16:17;;;;;;;0.77;0.60;;;;;;;;;;4944963;29;20207;-81
2022/07/07 11:18:49;;;;;;;2.03;0.90;;;;;;;;;;4918151;29;20254;-81
2022/07/07 11:21:16;;;;;;;1.60;0.70;;;;;;;;;;4931888;29;20283;-81
2022/07/07 11:32:52;;;;;;;2.70;0.60;;;;;;;;;;4932586;29;20227;-80
2022/07/07 11:35:19;;;;;;;4.57;1.00;;;;;;;;;;4934198;29;20202;-80
2022/07/07 11:37:47;;;;;;;3.57;0.90;;;;;;;;;;4935422;28;20218;-80
2022/07/07 11:40:24;;;;;;;1.90;0.70;;;;;;;;;;4928435;29;20262;-80
2022/07/07 11:42:51;;;;;;;3.73;1.20;;;;;;;;;;4930429;29;20204;-80
2022/07/07 11:45:21;;;;;;;4.07;1.20;;;;;;;;;;4929223;29;20202;-80
2022/07/07 11:47:51;;;;;;;4.77;0.87;;;;;;;;;;4934658;29;20214;-81
2022/07/07 11:50:18;;;;;;;3.43;1.27;;;;;;;;;;4934739;29;20298;-80
2022/07/07 11:52:48;;;;;;;1.77;1.00;;;;;;;;;;4935432;29;20736;-80
2022/07/07 11:55:18;;;;;;;2.47;1.13;;;;;;;;;;4932922;29;20209;-80
2022/07/07 11:57:52;;;;;;;1.80;1.00;;;;;;;;;;4931065;29;20753;-80
2022/07/07 12:00:24;;;;;;;4.53;0.90;;;;;;;;;;4917786;29;20215;-80
2022/07/07 12:02:57;;;;;;;3.90;1.10;;;;;;;;;;4935947;29;20605;-81
2022/07/07 12:05:25;;;;;;;3.30;1.10;;;;;;;;;;4935429;29;20214;-80
2022/07/07 12:07:55;;;;;;;3.13;1.10;;;;;;;;;;4929151;29;20231;-81
2022/07/07 12:10:27;;;;;;;1.57;1.17;;;;;;;;;;4931798;29;20217;-81
2022/07/07 12:12:56;;;;;;;2.70;1.10;;;;;;;;;;4932742;29;20262;-81
2022/07/07 12:15:28;;;;;;;4.73;1.20;;;;;;;;;;4932297;29;20266;-81
2022/07/07 12:17:56;;;;;;;1.90;1.00;;;;;;;;;;4932456;29;20774;-80
2022/07/07 12:20:23;;;;;;;3.30;1.40;;;;;;;;;;4932826;29;20673;-80
2022/07/07 12:26:06;;;;;;;1.87;0.93;;;;;;;;;;4949271;28;20326;-81
2022/07/07 12:28:36;;;;;;;1.23;0.80;;;;;;;;;;4932807;28;20325;-81
2022/07/07 12:31:07;;;;;;;3.93;1.00;;;;;;;;;;4934096;29;20217;-80
2022/07/07 12:33:35;;;;;;;2.50;0.90;;;;;;;;;;4932559;29;20226;-81
2022/07/07 12:36:15;;;;;;;2.17;0.90;;;;;;;;;;4935165;29;20306;-81
2022/07/07 12:38:48;;;;;;;3.60;0.83;;;;;;;;;;4931137;28;20229;-81
2022/07/07 12:41:24;;;;;;;2.83;0.90;;;;;;;;;;4936349;29;20314;-80
2022/07/07 12:43:54;;;;;;;5.20;0.90;;;;;;;;;;4935641;29;20701;-81
2022/07/07 12:46:32;;;;;;;2.80;0.90;;;;;;;;;;4940141;29;20225;-81
2022/07/07 12:49:00;;;;;;;2.23;1.00;;;;;;;;;;4933635;29;20738;-81
2022/07/07 12:51:29;;;;;;;4.43;0.90;;;;;;;;;;4939292;29;20230;-81
2022/07/07 12:57:17;;;;;;;2.70;0.80;;;;;;;;;;4912379;29;20206;-82
2022/07/07 12:59:45;;;;;;;3.10;0.90;;;;;;;;;;4945617;28;20219;-82
2022/07/07 13:02:17;;;;;;;2.03;0.90;;;;;;;;;;4963456;28;20231;-80
2022/07/07 13:04:45;;;;;;;2.93;1.20;;;;;;;;;;4955184;28;20222;-80
2022/07/07 13:07:12;;;;;;;2.83;1.00;;;;;;;;;;4930194;29;20207;-81
2022/07/07 13:09:40;;;;;;;4.00;1.03;;;;;;;;;;4932978;28;20229;-81
2022/07/07 13:12:12;;;;;;;4.33;0.90;;;;;;;;;;4927535;29;20247;-80
2022/07/07 13:14:39;;;;;;;0.90;0.60;;;;;;;;;;4923205;29;20281;-81
2022/07/07 13:17:06;;;;;;;0.93;0.67;;;;;;;;;;4926464;29;20214;-81
2022/07/07 13:19:35;;;;;;;2.47;0.77;;;;;;;;;;4930840;28;20301;-81
2022/07/07 13:22:05;;;;;;;0.87;0.70;;;;;;;;;;4933364;29;20246;-81
2022/07/07 13:24:33;;;;;;;1.27;0.90;;;;;;;;;;4955457;28;20308;-81
2022/07/07 13:29:45;;;;;;;4.33;0.80;;;;;;;;;;4927159;28;20715;-82
2022/07/07 13:32:14;;;;;;;1.03;0.70;;;;;;;;;;4924869;29;20214;-82
2022/07/07 13:34:46;;;;;;;0.90;0.80;;;;;;;;;;4933002;29;20576;-81
2022/07/07 13:37:13;;;;;;;1.60;0.90;;;;;;;;;;4936200;29;20293;-81
2022/07/07 13:39:40;;;;;;;1.03;0.73;;;;;;;;;;4933272;29;20229;-81
2022/07/07 13:42:08;;;;;;;2.13;1.00;;;;;;;;;;4936962;29;20286;-80
2022/07/07 13:44:36;;;;;;;2.57;0.70;;;;;;;;;;4933243;29;20240;-81
2022/07/07 13:47:03;;;;;;;1.00;0.70;;;;;;;;;;4936462;29;20329;-81
2022/07/07 13:49:31;;;;;;;1.30;0.80;;;;;;;;;;4936232;29;20243;-81
2022/07/07 13:51:59;;;;;;;1.67;0.90;;;;;;;;;;4938635;29;20211;-80
2022/07/07 13:54:47;;;;;;;2.20;0.80;;;;;;;;;;4937888;29;20294;-80
2022/07/07 13:57:15;;;;;;;1.47;0.70;;;;;;;;;;4951663;29;20194;-80
2022/07/07 13:59:42;;;;;;;1.60;0.83;;;;;;;;;;4936098;28;20627;-80
2022/07/07 14:02:11;;;;;;;1.00;0.80;;;;;;;;;;4935573;29;20215;-80
2022/07/07 14:04:40;;;;;;;2.00;0.93;;;;;;;;;;4950273;29;20267;-80
2022/07/07 14:07:08;;;;;;;2.17;1.00;;;;;;;;;;4943286;29;20211;-79
2022/07/07 14:09:36;;;;;;;1.73;1.40;;;;;;;;;;4937072;28;20222;-79
2022/07/07 14:12:12;;;;;;;1.70;1.60;;;;;;;;;;4948926;29;20210;-80
2022/07/07 14:14:40;;;;;;;2.97;1.83;;;;;;;;;;4939125;29;20305;-80
2022/07/07 14:17:07;;;;;;;2.47;1.70;;;;;;;;;;4940043;29;20199;-79
2022/07/07 14:19:34;;;;;;;2.70;1.90;;;;;;;;;;4937216;29;20334;-81
2022/07/07 14:22:01;;;;;;;2.23;1.67;;;;;;;;;;4937389;29;20290;-81
2022/07/07 14:24:30;;;;;;;2.80;1.90;;;;;;;;;;4928557;29;20500;-81
2022/07/07 14:26:57;;;;;;;5.33;1.60;;;;;;;;;;4937054;29;20218;-81
2022/07/07 14:29:25;;;;;;;2.77;1.70;;;;;;;;;;4994854;23;20230;-82
2022/07/07 14:31:52;;;;;;;2.77;1.90;;;;;;;;;;4953148;28;20230;-83
2022/07/07 14:34:19;;;;;;;3.03;1.63;;;;;;;;;;4951754;28;20698;-83
2022/07/07 14:36:46;;;;;;;2.33;1.50;;;;;;;;;;4963773;28;20233;-83
2022/07/07 14:39:14;;;;;;;1.40;1.30;;;;;;;;;;4949547;28;20219;-83
2022/07/07 14:41:42;;;;;;;1.70;1.43;;;;;;;;;;4933629;29;20208;-80
2022/07/07 14:44:09;;;;;;;3.67;1.60;;;;;;;;;;4936211;29;20227;-83
2022/07/07 14:46:38;;;;;;;1.80;1.10;;;;;;;;;;4942497;29;20356;-79
2022/07/07 14:49:05;;;;;;;2.97;1.70;;;;;;;;;;4933492;29;20223;-81
2022/07/07 14:51:33;;;;;;;2.03;1.57;;;;;;;;;;4935438;28;20717;-83
2022/07/07 14:54:00;;;;;;;2.73;1.50;;;;;;;;;;4940139;29;20220;-82
2022/07/07 14:56:27;;;;;;;4.53;1.50;;;;;;;;;;4937594;29;20214;-82
2022/07/07 14:58:56;;;;;;;2.37;1.80;;;;;;;;;;4941233;29;20234;-82
2022/07/07 15:01:23;;;;;;;2.63;1.47;;;;;;;;;;4940012;29;20215;-81
2022/07/07 15:03:51;;;;;;;2.50;1.57;;;;;;;;;;4947599;29;20222;-81
2022/07/07 15:06:19;;;;;;;2.30;1.60;;;;;;;;;;4959474;29;20244;-81
2022/07/07 15:08:46;;;;;;;2.57;1.50;;;;;;;;;;4951294;28;20229;-80
2022/07/07 15:11:14;;;;;;;3.97;1.90;;;;;;;;;;4936248;29;20290;-81
2022/07/07 15:13:41;;;;;;;3.40;1.57;;;;;;;;;;4938370;29;20227;-81
2022/07/07 15:16:09;;;;;;;3.40;1.70;;;;;;;;;;4935590;29;20338;-81
2022/07/07 15:18:36;;;;;;;3.40;1.67;;;;;;;;;;4939049;29;20707;-81
2022/07/07 15:21:04;;;;;;;1.70;1.60;;;;;;;;;;4936492;28;20231;-82